createdAt,value
2023-03-03T00:01:05.516Z,60.93
2023-03-03T00:03:33.831Z,59.37
2023-03-03T00:06:03.918Z,61.50
2023-03-03T00:08:32.591Z,62.63
2023-03-03T00:11:03.325Z,59.93
2023-03-03T00:13:32.186Z,60.63
2023-03-03T00:16:17.046Z,61.70
2023-03-03T00:18:48.425Z,62.10
2023-03-03T00:21:26.114Z,64.23
2023-03-03T00:23:55.206Z,59.73
2023-03-03T00:26:25.016Z,59.10
2023-03-03T00:28:54.613Z,59.67
2023-03-03T00:31:25.195Z,62.10
2023-03-03T00:33:54.854Z,59.00
2023-03-03T00:36:31.720Z,56.53
2023-03-03T00:39:18.644Z,57.60
2023-03-03T00:41:46.864Z,56.40
2023-03-03T00:44:34.642Z,57.13
2023-03-03T00:47:04.306Z,54.60
2023-03-03T00:49:33.381Z,54.63
2023-03-03T00:52:03.900Z,58.10
2023-03-03T00:54:32.128Z,56.13
2023-03-03T00:57:00.349Z,57.60
2023-03-03T00:59:28.569Z,58.73
2023-03-03T01:01:56.902Z,58.97
2023-03-03T01:04:25.201Z,60.00
2023-03-03T01:06:53.494Z,55.40
2023-03-03T01:09:23.274Z,54.80
2023-03-03T01:11:51.581Z,51.97
2023-03-03T01:14:19.826Z,55.20
2023-03-03T01:16:48.073Z,57.13
2023-03-03T01:19:16.796Z,57.93
2023-03-03T01:21:45.022Z,57.37
2023-03-03T01:24:13.747Z,60.40
2023-03-03T01:26:43.466Z,63.83
2023-03-03T01:29:11.720Z,60.67
2023-03-03T01:31:40.531Z,63.53
2023-03-03T01:34:08.829Z,61.27
2023-03-03T01:36:37.479Z,60.67
2023-03-03T01:39:05.966Z,63.13
2023-03-03T01:41:34.705Z,65.80
2023-03-03T01:44:04.406Z,64.10
2023-03-03T01:46:41.496Z,63.03
2023-03-03T01:49:14.256Z,62.63
2023-03-03T01:51:47.208Z,61.67
2023-03-03T01:54:17.812Z,63.83
2023-03-03T01:56:46.055Z,62.97
2023-03-03T01:59:17.207Z,61.23
2023-03-03T02:01:45.518Z,58.60
2023-03-03T02:04:13.819Z,58.77
2023-03-03T02:06:43.011Z,60.20
2023-03-03T02:09:13.391Z,59.07
2023-03-03T02:11:43.541Z,57.50
2023-03-03T02:14:12.239Z,63.10
2023-03-03T02:16:41.871Z,64.50
2023-03-03T02:19:13.066Z,63.70
2023-03-03T02:21:41.305Z,69.00
2023-03-03T02:24:12.190Z,65.53
2023-03-03T02:26:42.255Z,63.57
2023-03-03T02:29:10.819Z,62.33
2023-03-03T02:31:39.463Z,63.50
2023-03-03T02:34:07.747Z,63.73
2023-03-03T02:36:36.766Z,59.03
2023-03-03T02:39:06.518Z,64.80
2023-03-03T02:41:35.920Z,63.90
2023-03-03T02:44:06.959Z,63.40
2023-03-03T02:46:36.095Z,64.20
2023-03-03T02:49:04.804Z,63.30
2023-03-03T02:51:33.112Z,64.23
2023-03-03T02:54:01.466Z,67.03
2023-03-03T02:56:29.747Z,63.07
2023-03-03T02:58:57.994Z,63.27
2023-03-03T03:01:27.734Z,69.03
2023-03-03T03:03:56.044Z,68.93
2023-03-03T03:06:24.338Z,66.20
2023-03-03T03:08:52.570Z,68.70
2023-03-03T03:11:21.144Z,66.23
2023-03-03T03:13:49.385Z,65.87
2023-03-03T03:16:17.655Z,65.93
2023-03-03T03:18:47.351Z,66.20
2023-03-03T03:21:15.571Z,67.27
2023-03-03T03:23:43.842Z,68.07
2023-03-03T03:26:12.151Z,63.67
2023-03-03T03:28:40.567Z,67.53
2023-03-03T03:31:09.359Z,64.50
2023-03-03T03:33:37.672Z,66.57
2023-03-03T03:36:08.110Z,67.67
2023-03-03T03:38:36.785Z,65.60
2023-03-03T03:41:05.260Z,64.90
2023-03-03T03:43:33.471Z,64.07
2023-03-03T03:46:01.740Z,64.07
2023-03-03T03:48:30.023Z,63.87
2023-03-03T03:50:58.225Z,63.73
2023-03-03T03:53:27.904Z,65.40
2023-03-03T03:55:56.127Z,64.80
2023-03-03T03:58:24.410Z,62.47
2023-03-03T04:00:52.677Z,62.70
2023-03-03T04:03:20.997Z,63.13
2023-03-03T04:05:51.146Z,65.43
2023-03-03T04:08:19.372Z,66.60
2023-03-03T04:10:49.006Z,66.33
2023-03-03T04:13:17.323Z,70.33
2023-03-03T04:15:45.576Z,68.17
2023-03-03T04:18:13.813Z,69.13
2023-03-03T04:20:42.093Z,72.33
2023-03-03T04:23:10.824Z,65.33
2023-03-03T04:25:39.091Z,66.20
2023-03-03T04:28:08.751Z,66.87
2023-03-03T04:30:37.068Z,64.57
2023-03-03T04:33:05.415Z,70.70
2023-03-03T04:35:33.656Z,67.17
2023-03-03T04:38:01.933Z,67.17
2023-03-03T04:40:30.255Z,69.87
2023-03-03T04:42:58.599Z,77.87
2023-03-03T04:45:28.210Z,82.17
2023-03-03T04:47:56.437Z,78.77
2023-03-03T04:50:24.692Z,75.93
2023-03-03T04:52:52.930Z,91.67
2023-03-03T04:55:21.233Z,85.93
2023-03-03T04:57:49.450Z,87.43
2023-03-03T05:00:18.343Z,81.43
2023-03-03T05:02:48.648Z,78.67
2023-03-03T05:05:17.059Z,72.13
2023-03-03T05:07:45.350Z,73.13
2023-03-03T05:10:13.540Z,69.97
2023-03-03T05:12:42.034Z,69.10
2023-03-03T05:15:10.806Z,67.97
2023-03-03T05:17:39.071Z,69.17
2023-03-03T05:20:10.810Z,76.47
2023-03-03T05:22:39.107Z,80.53
2023-03-03T05:25:09.307Z,82.00
2023-03-03T05:27:37.535Z,83.10
2023-03-03T05:30:06.547Z,82.03
2023-03-03T05:32:34.846Z,81.03
2023-03-03T05:35:03.163Z,85.00
2023-03-03T05:37:32.780Z,82.30
2023-03-03T05:40:01.010Z,82.07
2023-03-03T05:42:29.322Z,84.63
2023-03-03T05:44:57.944Z,84.27
2023-03-03T05:47:26.320Z,86.33
2023-03-03T05:49:54.541Z,87.33
2023-03-03T05:52:24.307Z,88.33
2023-03-03T05:54:54.070Z,82.43
2023-03-03T05:57:22.300Z,80.53
2023-03-03T05:59:50.543Z,77.47
2023-03-03T06:02:18.974Z,78.07
2023-03-03T06:04:47.274Z,77.77
2023-03-03T06:07:15.501Z,73.83
2023-03-03T06:09:43.773Z,74.20
2023-03-03T06:12:13.444Z,74.83
2023-03-03T06:14:41.670Z,74.90
2023-03-03T06:17:10.874Z,73.30
2023-03-03T06:19:39.601Z,71.60
2023-03-03T06:22:07.822Z,67.87
2023-03-03T06:24:36.076Z,68.97
2023-03-03T06:27:04.407Z,68.50
2023-03-03T06:29:34.111Z,68.20
2023-03-03T06:32:02.540Z,68.57
2023-03-03T06:34:30.881Z,65.33
2023-03-03T06:36:59.848Z,64.00
2023-03-03T06:39:28.305Z,76.70
2023-03-03T06:41:56.757Z,75.47
2023-03-03T06:44:26.568Z,77.50
2023-03-03T06:46:58.890Z,79.03
2023-03-03T06:49:27.282Z,80.03
2023-03-03T06:51:55.516Z,86.47
2023-03-03T06:54:30.742Z,86.07
2023-03-03T06:57:00.409Z,83.73
2023-03-03T06:59:28.756Z,80.67
2023-03-03T07:01:58.473Z,73.07
2023-03-03T07:04:31.050Z,78.00
2023-03-03T07:07:00.040Z,80.70
2023-03-03T07:09:29.646Z,82.47
2023-03-03T07:11:59.177Z,83.93
2023-03-03T07:14:27.424Z,83.87
2023-03-03T07:16:59.432Z,88.17
2023-03-03T07:19:32.062Z,92.77
2023-03-03T07:22:00.295Z,93.87
2023-03-03T07:24:29.285Z,90.40
2023-03-03T07:27:01.959Z,90.17
2023-03-03T07:29:31.331Z,88.13
2023-03-03T07:32:01.093Z,89.60
2023-03-03T07:34:32.443Z,96.83
2023-03-03T07:37:01.139Z,96.87
2023-03-03T07:39:35.347Z,93.23
2023-03-03T07:42:24.803Z,92.27
2023-03-03T07:44:54.155Z,92.57
2023-03-03T07:47:25.095Z,90.33
2023-03-03T07:49:53.794Z,91.37
2023-03-03T07:52:27.493Z,90.10
2023-03-03T07:54:56.554Z,86.07
2023-03-03T07:57:26.128Z,83.50
2023-03-03T07:59:55.452Z,75.43
2023-03-03T08:02:41.694Z,70.07
2023-03-03T08:05:33.315Z,72.70
2023-03-03T08:08:16.181Z,65.63
2023-03-03T08:10:46.051Z,62.17
2023-03-03T08:13:18.814Z,60.40
2023-03-03T08:15:47.621Z,60.63
2023-03-03T08:18:26.131Z,60.47
2023-03-03T08:20:55.952Z,59.70
2023-03-03T08:23:24.303Z,58.27
2023-03-03T08:25:52.983Z,58.70
2023-03-03T08:28:21.581Z,53.27
2023-03-03T08:30:50.097Z,52.27
2023-03-03T08:33:19.863Z,53.60
2023-03-03T08:35:48.338Z,52.83
2023-03-03T08:38:17.849Z,54.43
2023-03-03T08:40:46.196Z,46.07
2023-03-03T08:43:17.283Z,47.10
2023-03-03T08:45:46.080Z,49.47
2023-03-03T08:48:14.369Z,45.63
2023-03-03T08:50:44.060Z,44.10
2023-03-03T08:53:12.321Z,40.40
2023-03-03T08:55:40.798Z,40.27
2023-03-03T08:58:09.169Z,38.30
2023-03-03T09:00:38.478Z,41.10
2023-03-03T09:03:07.242Z,38.63
2023-03-03T09:05:35.731Z,36.37
2023-03-03T09:08:05.702Z,35.57
2023-03-03T09:10:35.531Z,37.10
2023-03-03T09:13:06.062Z,40.40
2023-03-03T09:15:34.694Z,42.07
2023-03-03T09:18:11.211Z,38.23
2023-03-03T09:20:40.847Z,37.23
2023-03-03T09:23:34.933Z,37.70
2023-03-03T09:26:28.353Z,37.37
2023-03-03T09:28:57.700Z,35.10
2023-03-03T09:31:27.270Z,34.67
2023-03-03T09:33:58.010Z,36.70
2023-03-03T09:36:27.565Z,35.50
2023-03-03T09:38:57.371Z,39.03
2023-03-03T09:41:51.440Z,37.27
2023-03-03T09:44:43.172Z,36.77
2023-03-03T09:47:22.157Z,36.13
2023-03-03T09:49:58.537Z,33.73
2023-03-03T09:52:34.468Z,37.53
2023-03-03T09:55:14.044Z,34.83
2023-03-03T09:58:10.080Z,31.83
2023-03-03T10:00:44.461Z,34.67
2023-03-03T10:03:38.995Z,33.70
2023-03-03T10:06:12.595Z,35.17
2023-03-03T10:08:57.006Z,33.70
2023-03-03T10:11:27.963Z,36.67
2023-03-03T10:14:18.712Z,33.30
2023-03-03T10:17:08.349Z,30.93
2023-03-03T10:19:42.085Z,34.53
2023-03-03T10:22:20.625Z,35.00
2023-03-03T10:24:59.317Z,34.13
2023-03-03T10:27:38.640Z,34.83
2023-03-03T10:30:10.455Z,33.77
2023-03-03T10:32:45.767Z,37.30
2023-03-03T10:35:42.997Z,34.73
2023-03-03T10:38:35.539Z,31.80
2023-03-03T10:41:13.080Z,32.80
2023-03-03T10:43:55.665Z,31.33
2023-03-03T10:46:42.311Z,31.10
2023-03-03T10:49:29.991Z,33.27
2023-03-03T10:52:10.497Z,31.23
2023-03-03T10:54:49.160Z,31.70
2023-03-03T10:57:19.939Z,29.43
2023-03-03T11:00:00.053Z,28.33
2023-03-03T11:02:29.925Z,26.47
2023-03-03T11:05:19.581Z,25.23
2023-03-03T11:07:49.356Z,26.27
2023-03-03T11:10:26.395Z,26.23
2023-03-03T11:13:01.245Z,23.17
2023-03-03T11:15:36.945Z,23.07
2023-03-03T11:18:15.101Z,23.03
2023-03-03T11:20:46.793Z,24.33
2023-03-03T11:23:27.137Z,22.60
2023-03-03T11:25:58.817Z,23.50
2023-03-03T11:28:32.562Z,22.83
2023-03-03T11:31:11.341Z,21.77
2023-03-03T11:33:45.102Z,22.03
2023-03-03T11:36:15.791Z,21.50
2023-03-03T11:38:53.402Z,21.30
2023-03-03T11:41:29.315Z,22.03
2023-03-03T11:43:59.950Z,22.17
2023-03-03T11:46:32.081Z,22.43
2023-03-03T11:49:01.308Z,22.57
2023-03-03T11:51:35.410Z,21.37
2023-03-03T11:54:06.585Z,22.17
2023-03-03T11:56:36.601Z,22.93
2023-03-03T11:59:16.922Z,24.50
2023-03-03T12:01:50.410Z,23.37
2023-03-03T12:04:21.536Z,24.37
2023-03-03T12:07:12.841Z,23.27
2023-03-03T12:09:47.503Z,23.53
2023-03-03T12:12:16.309Z,25.40
2023-03-03T12:14:59.670Z,23.70
2023-03-03T12:17:38.075Z,25.03
2023-03-03T12:20:10.478Z,21.77
2023-03-03T12:22:40.226Z,22.70
2023-03-03T12:25:22.623Z,23.27
2023-03-03T12:27:54.593Z,21.37
2023-03-03T12:30:45.833Z,23.90
2023-03-03T12:33:23.570Z,24.53
2023-03-03T12:35:56.473Z,21.80
2023-03-03T12:38:29.381Z,22.30
2023-03-03T12:41:01.812Z,23.87
2023-03-03T12:43:41.387Z,24.47
2023-03-03T12:46:14.619Z,23.33
2023-03-03T12:48:44.861Z,23.47
2023-03-03T12:51:19.194Z,22.20
2023-03-03T12:53:56.184Z,20.30
2023-03-03T12:56:27.463Z,22.60
2023-03-03T12:58:59.158Z,22.20
2023-03-03T13:01:34.543Z,22.40
2023-03-03T13:04:08.944Z,21.93
2023-03-03T13:06:39.843Z,24.23
2023-03-03T13:09:18.589Z,23.03
2023-03-03T13:12:05.492Z,27.50
2023-03-03T13:14:37.250Z,26.17
2023-03-03T13:17:11.665Z,22.90
2023-03-03T13:19:56.248Z,25.27
2023-03-03T13:22:33.715Z,23.13
2023-03-03T13:25:04.427Z,24.83
2023-03-03T13:27:35.453Z,23.27
2023-03-03T13:30:05.045Z,23.47
2023-03-03T13:32:37.515Z,24.53
2023-03-03T13:35:09.419Z,25.40
2023-03-03T13:37:39.283Z,25.10
2023-03-03T13:40:11.260Z,25.80
2023-03-03T13:42:41.162Z,23.03
2023-03-03T13:45:17.597Z,21.37
2023-03-03T13:47:49.190Z,21.13
2023-03-03T13:50:21.947Z,21.27
2023-03-03T13:52:56.882Z,19.50
2023-03-03T13:55:28.255Z,19.03
2023-03-03T13:58:00.593Z,18.53
2023-03-03T14:00:33.478Z,19.87
2023-03-03T14:03:10.626Z,20.93
2023-03-03T14:05:41.960Z,21.73
2023-03-03T14:08:14.429Z,22.87
2023-03-03T14:10:45.456Z,22.90
2023-03-03T14:13:14.321Z,23.87
2023-03-03T14:15:46.323Z,21.13
2023-03-03T14:18:23.138Z,21.43
2023-03-03T14:20:53.243Z,23.37
2023-03-03T14:23:23.838Z,24.77
2023-03-03T14:25:58.360Z,24.37
2023-03-03T14:28:27.660Z,24.73
2023-03-03T14:30:57.445Z,23.87
2023-03-03T14:33:30.980Z,24.40
2023-03-03T14:36:07.839Z,23.50
2023-03-03T14:38:45.426Z,22.03
2023-03-03T14:41:18.566Z,21.93
2023-03-03T14:43:47.494Z,21.50
2023-03-03T14:46:33.599Z,21.73
2023-03-03T14:49:02.632Z,20.27
2023-03-03T14:51:36.052Z,21.50
2023-03-03T14:54:04.438Z,19.87
2023-03-03T14:56:35.272Z,22.17
2023-03-03T14:59:18.034Z,20.97
2023-03-03T15:01:46.569Z,21.13
2023-03-03T15:04:25.635Z,21.80
2023-03-03T15:06:55.521Z,20.07
2023-03-03T15:09:26.887Z,18.10
2023-03-03T15:11:55.414Z,20.17
2023-03-03T15:14:29.475Z,20.97
2023-03-03T15:16:58.632Z,20.77
2023-03-03T15:19:39.064Z,18.30
2023-03-03T15:22:13.234Z,19.60
2023-03-03T15:24:43.610Z,18.77
2023-03-03T15:27:13.842Z,19.00
2023-03-03T15:29:43.362Z,18.50
2023-03-03T15:32:15.951Z,19.77
2023-03-03T15:34:45.595Z,22.27
2023-03-03T15:37:25.858Z,20.77
2023-03-03T15:39:58.288Z,21.50
2023-03-03T15:42:35.710Z,20.90
2023-03-03T15:45:07.443Z,21.90
2023-03-03T15:47:50.839Z,23.27
2023-03-03T15:50:33.670Z,22.90
2023-03-03T15:53:23.417Z,23.90
2023-03-03T15:56:11.042Z,24.40
2023-03-03T15:58:49.054Z,22.67
2023-03-03T16:01:21.903Z,25.10
2023-03-03T16:03:52.770Z,25.47
2023-03-03T16:06:23.468Z,24.43
2023-03-03T16:08:56.034Z,24.30
2023-03-03T16:11:27.289Z,25.43
2023-03-03T16:14:12.440Z,25.07
2023-03-03T16:16:45.020Z,23.93
2023-03-03T16:19:19.316Z,23.40
2023-03-03T16:22:09.185Z,22.70
2023-03-03T16:24:45.632Z,23.30
2023-03-03T16:27:16.955Z,22.90
2023-03-03T16:29:51.558Z,25.77
2023-03-03T16:32:23.617Z,26.10
2023-03-03T16:34:57.225Z,25.97
2023-03-03T16:37:29.009Z,26.80
2023-03-03T16:40:02.830Z,27.97
2023-03-03T16:42:34.439Z,26.63
2023-03-03T16:45:08.121Z,29.03
2023-03-03T16:47:43.537Z,26.77
2023-03-03T16:50:18.045Z,27.10
2023-03-03T16:52:49.246Z,27.93
2023-03-03T16:55:19.628Z,30.43
2023-03-03T16:57:54.478Z,30.57
2023-03-03T17:00:23.060Z,33.43
2023-03-03T17:03:00.687Z,30.47
2023-03-03T17:05:37.507Z,30.63
2023-03-03T17:08:13.648Z,30.67
2023-03-03T17:10:44.795Z,28.17
2023-03-03T17:13:29.689Z,30.23
2023-03-03T17:16:05.317Z,28.17
2023-03-03T17:18:39.234Z,31.03
2023-03-03T17:21:11.672Z,30.20
2023-03-03T17:24:01.353Z,33.33
2023-03-03T17:26:38.516Z,31.10
2023-03-03T17:29:17.536Z,32.00
2023-03-03T17:31:48.622Z,32.33
2023-03-03T17:34:23.034Z,34.07
2023-03-03T17:36:56.634Z,34.40
2023-03-03T17:39:47.465Z,35.60
2023-03-03T17:42:19.370Z,36.87
2023-03-03T17:44:50.682Z,35.20
2023-03-03T17:47:24.653Z,35.00
2023-03-03T17:50:05.235Z,34.57
2023-03-03T17:52:41.160Z,32.30
2023-03-03T17:55:32.051Z,31.50
2023-03-03T17:58:10.093Z,31.33
2023-03-03T18:00:45.201Z,32.13
2023-03-03T18:03:44.029Z,33.23
2023-03-03T18:06:27.526Z,33.10
2023-03-03T18:09:14.467Z,33.23
2023-03-03T18:11:53.703Z,32.70
2023-03-03T18:14:45.815Z,32.50
2023-03-03T18:17:35.473Z,30.60
2023-03-03T18:20:14.051Z,30.80
2023-03-03T18:22:44.430Z,32.80
2023-03-03T18:25:13.086Z,30.20
2023-03-03T18:27:41.451Z,29.60
2023-03-03T18:30:27.056Z,24.47
2023-03-03T18:33:14.305Z,26.47
2023-03-03T18:35:44.049Z,28.37
2023-03-03T18:38:30.416Z,27.80
2023-03-03T18:40:59.505Z,28.90
2023-03-03T18:44:00.852Z,30.47
2023-03-03T18:46:52.538Z,29.03
2023-03-03T18:49:20.901Z,27.90
2023-03-03T18:52:17.738Z,28.63
2023-03-03T18:54:48.611Z,26.73
2023-03-03T18:57:18.926Z,26.17
2023-03-03T18:59:58.386Z,26.83
2023-03-03T19:02:36.015Z,25.53
2023-03-03T19:05:10.580Z,25.00
2023-03-03T19:07:49.798Z,26.43
2023-03-03T19:10:48.747Z,26.10
2023-03-03T19:13:53.197Z,24.90
2023-03-03T19:16:37.950Z,24.43
2023-03-03T19:19:11.656Z,25.17
2023-03-03T19:21:39.957Z,23.47
2023-03-03T19:24:29.004Z,21.53
2023-03-03T19:27:23.323Z,23.73
2023-03-03T19:30:22.764Z,23.53
2023-03-03T19:33:29.574Z,23.43
2023-03-03T19:36:18.391Z,24.70
2023-03-03T19:38:52.472Z,25.00
2023-03-03T19:41:28.892Z,25.13
2023-03-03T19:44:03.073Z,26.43
2023-03-03T19:46:41.453Z,28.83
2023-03-03T19:49:15.140Z,27.40
2023-03-03T19:51:48.026Z,28.73
2023-03-03T19:54:22.970Z,29.87
2023-03-03T19:56:52.114Z,32.43
2023-03-03T19:59:28.381Z,31.47
2023-03-03T20:02:04.778Z,33.50
2023-03-03T20:04:46.872Z,33.33
2023-03-03T20:07:24.055Z,34.47
2023-03-03T20:09:56.625Z,35.80
2023-03-03T20:12:30.288Z,36.63
2023-03-03T20:15:06.226Z,36.23
2023-03-03T20:17:52.576Z,37.37
2023-03-03T20:20:30.786Z,38.20
2023-03-03T20:23:05.372Z,39.13
2023-03-03T20:25:36.276Z,39.10
2023-03-03T20:28:07.756Z,39.77
2023-03-03T20:30:48.699Z,38.60
2023-03-03T20:33:25.017Z,38.03
2023-03-03T20:35:57.878Z,39.03
2023-03-03T20:38:30.425Z,39.43
2023-03-03T20:41:03.205Z,37.73
2023-03-03T20:43:38.960Z,36.27
2023-03-03T20:46:10.888Z,38.70
2023-03-03T20:48:48.108Z,37.67
2023-03-03T20:51:21.059Z,39.90
2023-03-03T20:53:52.581Z,40.43
2023-03-03T20:56:22.402Z,40.13
2023-03-03T20:58:58.761Z,39.43
2023-03-03T21:01:29.928Z,39.17
2023-03-03T21:03:58.762Z,35.17
2023-03-03T21:06:40.897Z,37.63
2023-03-03T21:09:10.661Z,37.53
2023-03-03T21:11:43.096Z,35.60
2023-03-03T21:14:15.734Z,35.97
2023-03-03T21:16:44.116Z,37.53
2023-03-03T21:19:13.024Z,36.57
2023-03-03T21:21:42.201Z,36.80
2023-03-03T21:24:15.395Z,36.23
2023-03-03T21:26:47.899Z,33.50
2023-03-03T21:29:29.320Z,36.27
2023-03-03T21:31:58.646Z,32.77
2023-03-03T21:34:28.858Z,32.57
2023-03-03T21:36:57.408Z,34.93
2023-03-03T21:39:31.485Z,33.37
2023-03-03T21:42:01.629Z,33.00
2023-03-03T21:44:30.825Z,36.30
2023-03-03T21:46:59.164Z,36.87
2023-03-03T21:49:27.540Z,37.20
2023-03-03T21:51:56.088Z,33.80
2023-03-03T21:54:24.516Z,33.97
2023-03-03T21:56:54.372Z,37.27
2023-03-03T21:59:22.680Z,33.53
2023-03-03T22:01:50.981Z,34.10
2023-03-03T22:04:19.315Z,35.50
2023-03-03T22:06:47.609Z,33.70
2023-03-03T22:09:15.892Z,31.83
2023-03-03T22:11:44.119Z,30.93
2023-03-03T22:14:13.852Z,29.10
2023-03-03T22:16:42.217Z,26.13
2023-03-03T22:19:10.669Z,26.50
2023-03-03T22:21:38.983Z,24.87
2023-03-03T22:24:07.994Z,24.03
2023-03-03T22:26:36.250Z,24.83
2023-03-03T22:29:04.518Z,26.03
2023-03-03T22:31:34.514Z,26.30
2023-03-03T22:34:02.854Z,22.20
2023-03-03T22:36:31.110Z,23.43
2023-03-03T22:38:59.348Z,24.73
2023-03-03T22:41:27.714Z,22.40
2023-03-03T22:43:55.965Z,23.80
2023-03-03T22:46:24.323Z,25.13
2023-03-03T22:48:53.974Z,25.20
2023-03-03T22:51:22.717Z,24.83
2023-03-03T22:53:50.975Z,28.67
2023-03-03T22:56:19.248Z,27.37
2023-03-03T22:58:47.504Z,28.97
2023-03-03T23:01:15.787Z,27.50
2023-03-03T23:03:44.029Z,27.27
2023-03-03T23:06:13.700Z,24.97
2023-03-03T23:08:41.981Z,27.60
2023-03-03T23:11:10.261Z,27.60
2023-03-03T23:13:38.519Z,25.70
2023-03-03T23:16:07.546Z,26.03
2023-03-03T23:18:35.838Z,27.73
2023-03-03T23:21:04.155Z,26.77
2023-03-03T23:23:33.929Z,26.33
2023-03-03T23:26:02.236Z,26.13
2023-03-03T23:28:30.499Z,28.27
2023-03-03T23:30:58.774Z,27.10
2023-03-03T23:33:27.139Z,26.77
2023-03-03T23:35:55.529Z,25.10
2023-03-03T23:38:23.836Z,26.20
2023-03-03T23:40:53.488Z,28.33
2023-03-03T23:43:21.796Z,27.90
2023-03-03T23:45:50.043Z,27.70
2023-03-03T23:48:18.329Z,30.00
2023-03-03T23:50:46.611Z,29.27
2023-03-03T23:53:14.863Z,31.47
2023-03-03T23:55:43.417Z,30.50
2023-03-03T23:58:13.174Z,29.77
